Litchfield, Illinois
Current Conditions -  °F | °C
As of 3:35 AM on Tuesday 21 Oct 2014 (Local Time) from K3LF Reporting Station
Clear Clear  
Wind Chill: 44°   Ceiling: Unl
Heat Index: 44°   Visibility: 10mi
Dew Point: 40°   Wind: 3mph
Humidity: 86%   Direction: 300°WNW
Pressure: 30.02"   Gusts: NA
Location:  39.18°N, 89.65°W
Report Text: K3LF 210835Z AUTO 30003KT 10SM CLR 07/05 A3002 RMK AO2 T00690047
Loading
Personal Weather Stations






























Interactive Weather Map
Tropical Storm Tracking
New forecast layout! Learn more

10-Day Weather Forecast

Advertisements
Track Severe Weather on mobile